sensor_id;sensor_type;location;lat;lon;timestamp;P1;durP1;ratioP1;P2;durP2;ratioP2
79023;SDS011;70306;44.764;37.688;2024-03-08T00:00:11;15.43;;;12.05;;
79023;SDS011;70306;44.764;37.688;2024-03-08T00:01:14;15.23;;;10.05;;
79023;SDS011;70306;44.764;37.688;2024-03-08T00:02:17;16.30;;;11.02;;
79023;SDS011;70306;44.764;37.688;2024-03-08T00:03:20;14.25;;;11.50;;
79023;SDS011;70306;44.764;37.688;2024-03-08T00:04:22;14.75;;;11.23;;
79023;SDS011;70306;44.764;37.688;2024-03-08T00:05:24;20.17;;;11.98;;
79023;SDS011;70306;44.764;37.688;2024-03-08T00:06:27;15.93;;;12.20;;
79023;SDS011;70306;44.764;37.688;2024-03-08T00:07:29;32.25;;;13.88;;
79023;SDS011;70306;44.764;37.688;2024-03-08T00:08:31;18.92;;;12.48;;
79023;SDS011;70306;44.764;37.688;2024-03-08T00:09:33;14.23;;;11.85;;
79023;SDS011;70306;44.764;37.688;2024-03-08T00:10:35;15.18;;;11.85;;
79023;SDS011;70306;44.764;37.688;2024-03-08T00:11:37;14.77;;;11.32;;
79023;SDS011;70306;44.764;37.688;2024-03-08T00:12:40;19.08;;;12.52;;
79023;SDS011;70306;44.764;37.688;2024-03-08T00:13:44;16.13;;;12.60;;
79023;SDS011;70306;44.764;37.688;2024-03-08T00:14:46;16.33;;;12.77;;
79023;SDS011;70306;44.764;37.688;2024-03-08T00:15:48;17.15;;;13.65;;
79023;SDS011;70306;44.764;37.688;2024-03-08T00:16:50;19.52;;;13.75;;
79023;SDS011;70306;44.764;37.688;2024-03-08T00:17:54;16.83;;;12.88;;
79023;SDS011;70306;44.764;37.688;2024-03-08T00:18:56;17.25;;;13.35;;
79023;SDS011;70306;44.764;37.688;2024-03-08T00:19:58;16.38;;;13.55;;
79023;SDS011;70306;44.764;37.688;2024-03-08T00:21:00;16.80;;;13.02;;
79023;SDS011;70306;44.764;37.688;2024-03-08T00:22:02;17.38;;;13.05;;
79023;SDS011;70306;44.764;37.688;2024-03-08T00:23:04;16.80;;;12.85;;
79023;SDS011;70306;44.764;37.688;2024-03-08T00:24:06;17.15;;;13.07;;
79023;SDS011;70306;44.764;37.688;2024-03-08T00:25:09;16.40;;;12.30;;
79023;SDS011;70306;44.764;37.688;2024-03-08T00:26:11;10.25;;;7.78;;
79023;SDS011;70306;44.764;37.688;2024-03-08T00:27:13;16.20;;;11.00;;
79023;SDS011;70306;44.764;37.688;2024-03-08T00:28:17;15.32;;;12.63;;
79023;SDS011;70306;44.764;37.688;2024-03-08T00:29:20;18.70;;;12.98;;
79023;SDS011;70306;44.764;37.688;2024-03-08T00:30:23;18.42;;;13.95;;
79023;SDS011;70306;44.764;37.688;2024-03-08T00:31:27;16.90;;;11.52;;
79023;SDS011;70306;44.764;37.688;2024-03-08T00:32:29;17.08;;;13.70;;
79023;SDS011;70306;44.764;37.688;2024-03-08T00:33:33;17.45;;;13.38;;
79023;SDS011;70306;44.764;37.688;2024-03-08T00:34:35;16.92;;;13.63;;
79023;SDS011;70306;44.764;37.688;2024-03-08T00:35:40;19.23;;;14.45;;
79023;SDS011;70306;44.764;37.688;2024-03-08T00:36:42;15.93;;;13.70;;
79023;SDS011;70306;44.764;37.688;2024-03-08T00:37:45;18.52;;;13.55;;
79023;SDS011;70306;44.764;37.688;2024-03-08T00:38:50;19.73;;;14.23;;
79023;SDS011;70306;44.764;37.688;2024-03-08T00:39:55;20.92;;;13.60;;
79023;SDS011;70306;44.764;37.688;2024-03-08T00:40:57;18.15;;;13.60;;
79023;SDS011;70306;44.764;37.688;2024-03-08T00:41:59;18.10;;;13.85;;
79023;SDS011;70306;44.764;37.688;2024-03-08T00:43:01;19.83;;;15.20;;
79023;SDS011;70306;44.764;37.688;2024-03-08T00:44:05;15.95;;;11.90;;
79023;SDS011;70306;44.764;37.688;2024-03-08T00:45:07;16.15;;;11.57;;
79023;SDS011;70306;44.764;37.688;2024-03-08T00:46:11;20.05;;;12.93;;
79023;SDS011;70306;44.764;37.688;2024-03-08T00:47:13;18.67;;;14.40;;
79023;SDS011;70306;44.764;37.688;2024-03-08T00:48:16;17.80;;;11.70;;
79023;SDS011;70306;44.764;37.688;2024-03-08T00:49:18;17.55;;;12.35;;
79023;SDS011;70306;44.764;37.688;2024-03-08T00:50:20;18.75;;;12.90;;
79023;SDS011;70306;44.764;37.688;2024-03-08T00:51:22;17.63;;;12.10;;
79023;SDS011;70306;44.764;37.688;2024-03-08T00:52:24;18.88;;;13.27;;
79023;SDS011;70306;44.764;37.688;2024-03-08T00:53:26;19.67;;;13.90;;
79023;SDS011;70306;44.764;37.688;2024-03-08T00:54:28;20.60;;;14.73;;
79023;SDS011;70306;44.764;37.688;2024-03-08T00:55:31;20.50;;;14.70;;
79023;SDS011;70306;44.764;37.688;2024-03-08T00:56:34;18.50;;;11.85;;
79023;SDS011;70306;44.764;37.688;2024-03-08T00:57:36;20.15;;;13.68;;
79023;SDS011;70306;44.764;37.688;2024-03-08T00:58:40;20.63;;;14.30;;
79023;SDS011;70306;44.764;37.688;2024-03-08T00:59:42;18.92;;;15.23;;
79023;SDS011;70306;44.764;37.688;2024-03-08T01:00:44;18.58;;;13.73;;
79023;SDS011;70306;44.764;37.688;2024-03-08T01:01:46;19.33;;;13.35;;
79023;SDS011;70306;44.764;37.688;2024-03-08T01:02:48;20.75;;;14.48;;
79023;SDS011;70306;44.764;37.688;2024-03-08T01:03:50;17.60;;;12.60;;
79023;SDS011;70306;44.764;37.688;2024-03-08T01:04:52;19.92;;;12.77;;
79023;SDS011;70306;44.764;37.688;2024-03-08T01:05:54;19.90;;;13.55;;
79023;SDS011;70306;44.764;37.688;2024-03-08T01:06:56;20.50;;;14.35;;
79023;SDS011;70306;44.764;37.688;2024-03-08T01:07:59;22.83;;;14.82;;
79023;SDS011;70306;44.764;37.688;2024-03-08T01:09:01;22.48;;;15.90;;
79023;SDS011;70306;44.764;37.688;2024-03-08T01:10:03;21.10;;;15.13;;
79023;SDS011;70306;44.764;37.688;2024-03-08T01:11:12;20.00;;;14.25;;
79023;SDS011;70306;44.764;37.688;2024-03-08T01:12:15;21.33;;;15.00;;
79023;SDS011;70306;44.764;37.688;2024-03-08T01:13:17;20.35;;;14.77;;
79023;SDS011;70306;44.764;37.688;2024-03-08T01:14:20;22.00;;;15.20;;
79023;SDS011;70306;44.764;37.688;2024-03-08T01:15:27;20.35;;;14.25;;
79023;SDS011;70306;44.764;37.688;2024-03-08T01:16:29;16.13;;;12.10;;
79023;SDS011;70306;44.764;37.688;2024-03-08T01:17:31;13.05;;;10.07;;
79023;SDS011;70306;44.764;37.688;2024-03-08T01:18:33;16.85;;;13.38;;
79023;SDS011;70306;44.764;37.688;2024-03-08T01:19:35;18.63;;;13.27;;
79023;SDS011;70306;44.764;37.688;2024-03-08T01:20:37;15.82;;;12.18;;
79023;SDS011;70306;44.764;37.688;2024-03-08T01:21:41;22.38;;;15.13;;
79023;SDS011;70306;44.764;37.688;2024-03-08T01:22:43;21.63;;;15.63;;
79023;SDS011;70306;44.764;37.688;2024-03-08T01:23:45;18.65;;;13.93;;
79023;SDS011;70306;44.764;37.688;2024-03-08T01:24:48;15.05;;;11.73;;
79023;SDS011;70306;44.764;37.688;2024-03-08T01:25:50;16.02;;;10.40;;
79023;SDS011;70306;44.764;37.688;2024-03-08T01:26:58;22.48;;;15.00;;
79023;SDS011;70306;44.764;37.688;2024-03-08T01:28:01;18.02;;;11.68;;
79023;SDS011;70306;44.764;37.688;2024-03-08T01:29:03;22.00;;;15.20;;
79023;SDS011;70306;44.764;37.688;2024-03-08T01:30:06;16.40;;;10.10;;
79023;SDS011;70306;44.764;37.688;2024-03-08T01:31:10;17.83;;;12.80;;
79023;SDS011;70306;44.764;37.688;2024-03-08T01:32:13;20.42;;;13.57;;
79023;SDS011;70306;44.764;37.688;2024-03-08T01:33:16;17.95;;;13.13;;
79023;SDS011;70306;44.764;37.688;2024-03-08T01:34:18;16.48;;;11.18;;
79023;SDS011;70306;44.764;37.688;2024-03-08T01:35:20;17.55;;;12.85;;
79023;SDS011;70306;44.764;37.688;2024-03-08T01:36:23;13.43;;;9.75;;
79023;SDS011;70306;44.764;37.688;2024-03-08T01:37:26;14.63;;;11.07;;
79023;SDS011;70306;44.764;37.688;2024-03-08T01:38:28;20.30;;;14.23;;
79023;SDS011;70306;44.764;37.688;2024-03-08T01:39:30;21.80;;;14.45;;
79023;SDS011;70306;44.764;37.688;2024-03-08T01:40:33;18.77;;;13.50;;
79023;SDS011;70306;44.764;37.688;2024-03-08T01:41:35;18.40;;;13.52;;
79023;SDS011;70306;44.764;37.688;2024-03-08T01:42:39;18.50;;;12.80;;
79023;SDS011;70306;44.764;37.688;2024-03-08T01:43:41;18.00;;;12.95;;
79023;SDS011;70306;44.764;37.688;2024-03-08T01:44:43;16.90;;;10.02;;
79023;SDS011;70306;44.764;37.688;2024-03-08T01:45:45;18.20;;;12.13;;
79023;SDS011;70306;44.764;37.688;2024-03-08T01:46:48;22.38;;;15.77;;
79023;SDS011;70306;44.764;37.688;2024-03-08T01:47:52;23.92;;;15.10;;
79023;SDS011;70306;44.764;37.688;2024-03-08T01:48:55;17.50;;;13.25;;
79023;SDS011;70306;44.764;37.688;2024-03-08T01:49:58;16.92;;;11.20;;
79023;SDS011;70306;44.764;37.688;2024-03-08T01:51:02;16.65;;;11.80;;
79023;SDS011;70306;44.764;37.688;2024-03-08T01:52:05;16.25;;;11.15;;
79023;SDS011;70306;44.764;37.688;2024-03-08T01:53:07;12.90;;;9.85;;
79023;SDS011;70306;44.764;37.688;2024-03-08T01:54:11;23.10;;;13.35;;
79023;SDS011;70306;44.764;37.688;2024-03-08T01:55:15;15.35;;;11.55;;
79023;SDS011;70306;44.764;37.688;2024-03-08T01:56:17;16.05;;;11.65;;
79023;SDS011;70306;44.764;37.688;2024-03-08T01:57:20;21.92;;;14.50;;
79023;SDS011;70306;44.764;37.688;2024-03-08T01:58:23;19.10;;;12.98;;
79023;SDS011;70306;44.764;37.688;2024-03-08T01:59:26;23.77;;;16.13;;
79023;SDS011;70306;44.764;37.688;2024-03-08T02:00:29;20.77;;;14.15;;
79023;SDS011;70306;44.764;37.688;2024-03-08T02:01:33;26.05;;;17.55;;
79023;SDS011;70306;44.764;37.688;2024-03-08T02:02:35;15.20;;;12.02;;
79023;SDS011;70306;44.764;37.688;2024-03-08T02:03:39;21.08;;;14.30;;
79023;SDS011;70306;44.764;37.688;2024-03-08T02:04:41;26.70;;;16.65;;
79023;SDS011;70306;44.764;37.688;2024-03-08T02:05:43;22.83;;;15.02;;
79023;SDS011;70306;44.764;37.688;2024-03-08T02:06:46;29.52;;;17.60;;
79023;SDS011;70306;44.764;37.688;2024-03-08T02:07:49;17.63;;;12.20;;
79023;SDS011;70306;44.764;37.688;2024-03-08T02:08:51;19.27;;;11.75;;
79023;SDS011;70306;44.764;37.688;2024-03-08T02:09:53;19.42;;;12.93;;
79023;SDS011;70306;44.764;37.688;2024-03-08T02:10:55;21.00;;;15.18;;
79023;SDS011;70306;44.764;37.688;2024-03-08T02:11:57;23.70;;;15.43;;
79023;SDS011;70306;44.764;37.688;2024-03-08T02:13:04;16.88;;;11.45;;
79023;SDS011;70306;44.764;37.688;2024-03-08T02:14:07;15.63;;;9.63;;
79023;SDS011;70306;44.764;37.688;2024-03-08T02:15:11;22.95;;;15.20;;
79023;SDS011;70306;44.764;37.688;2024-03-08T02:16:13;21.70;;;15.00;;
79023;SDS011;70306;44.764;37.688;2024-03-08T02:17:22;14.75;;;11.13;;
79023;SDS011;70306;44.764;37.688;2024-03-08T02:18:24;19.13;;;13.35;;
79023;SDS011;70306;44.764;37.688;2024-03-08T02:19:27;19.63;;;13.55;;
79023;SDS011;70306;44.764;37.688;2024-03-08T02:20:29;17.98;;;12.00;;
79023;SDS011;70306;44.764;37.688;2024-03-08T02:21:31;21.88;;;13.70;;
79023;SDS011;70306;44.764;37.688;2024-03-08T02:22:33;20.88;;;14.55;;
79023;SDS011;70306;44.764;37.688;2024-03-08T02:23:35;25.10;;;16.45;;
79023;SDS011;70306;44.764;37.688;2024-03-08T02:24:38;20.75;;;14.30;;
79023;SDS011;70306;44.764;37.688;2024-03-08T02:25:40;20.60;;;13.40;;
79023;SDS011;70306;44.764;37.688;2024-03-08T02:26:45;16.30;;;11.35;;
79023;SDS011;70306;44.764;37.688;2024-03-08T02:27:47;20.83;;;13.57;;
79023;SDS011;70306;44.764;37.688;2024-03-08T02:28:50;20.58;;;14.85;;
79023;SDS011;70306;44.764;37.688;2024-03-08T02:29:54;21.23;;;15.00;;
79023;SDS011;70306;44.764;37.688;2024-03-08T02:31:00;21.27;;;15.20;;
79023;SDS011;70306;44.764;37.688;2024-03-08T02:32:02;24.83;;;16.15;;
79023;SDS011;70306;44.764;37.688;2024-03-08T02:33:05;23.52;;;14.77;;
79023;SDS011;70306;44.764;37.688;2024-03-08T02:34:07;22.23;;;15.20;;
79023;SDS011;70306;44.764;37.688;2024-03-08T02:35:09;17.90;;;13.13;;
79023;SDS011;70306;44.764;37.688;2024-03-08T02:36:11;20.10;;;13.25;;
79023;SDS011;70306;44.764;37.688;2024-03-08T02:37:14;23.17;;;15.18;;
79023;SDS011;70306;44.764;37.688;2024-03-08T02:38:19;17.33;;;11.85;;
79023;SDS011;70306;44.764;37.688;2024-03-08T02:39:22;21.88;;;14.80;;
79023;SDS011;70306;44.764;37.688;2024-03-08T02:40:24;20.23;;;13.63;;
79023;SDS011;70306;44.764;37.688;2024-03-08T02:41:27;15.98;;;11.27;;
79023;SDS011;70306;44.764;37.688;2024-03-08T02:42:29;20.27;;;13.63;;
79023;SDS011;70306;44.764;37.688;2024-03-08T02:43:33;23.77;;;15.80;;
79023;SDS011;70306;44.764;37.688;2024-03-08T02:44:35;23.15;;;15.73;;
79023;SDS011;70306;44.764;37.688;2024-03-08T02:45:38;21.83;;;14.98;;
79023;SDS011;70306;44.764;37.688;2024-03-08T02:46:41;18.08;;;12.40;;
79023;SDS011;70306;44.764;37.688;2024-03-08T02:47:43;17.13;;;11.13;;
79023;SDS011;70306;44.764;37.688;2024-03-08T02:48:45;21.85;;;15.00;;
79023;SDS011;70306;44.764;37.688;2024-03-08T02:49:48;21.50;;;15.32;;
79023;SDS011;70306;44.764;37.688;2024-03-08T02:50:51;25.65;;;16.30;;
79023;SDS011;70306;44.764;37.688;2024-03-08T02:51:54;20.48;;;14.30;;
79023;SDS011;70306;44.764;37.688;2024-03-08T02:52:58;19.00;;;13.77;;
79023;SDS011;70306;44.764;37.688;2024-03-08T02:54:00;19.88;;;13.68;;
79023;SDS011;70306;44.764;37.688;2024-03-08T02:55:02;22.58;;;14.73;;
79023;SDS011;70306;44.764;37.688;2024-03-08T02:56:07;20.75;;;13.98;;
79023;SDS011;70306;44.764;37.688;2024-03-08T02:57:11;25.90;;;16.02;;
79023;SDS011;70306;44.764;37.688;2024-03-08T02:58:13;24.23;;;16.70;;
79023;SDS011;70306;44.764;37.688;2024-03-08T02:59:16;21.58;;;13.65;;
79023;SDS011;70306;44.764;37.688;2024-03-08T03:00:19;20.88;;;13.50;;
79023;SDS011;70306;44.764;37.688;2024-03-08T03:01:21;20.17;;;14.05;;
79023;SDS011;70306;44.764;37.688;2024-03-08T03:02:24;24.30;;;16.15;;
79023;SDS011;70306;44.764;37.688;2024-03-08T03:03:26;22.88;;;16.15;;
79023;SDS011;70306;44.764;37.688;2024-03-08T03:04:28;23.92;;;16.25;;
79023;SDS011;70306;44.764;37.688;2024-03-08T03:05:30;21.80;;;14.05;;
79023;SDS011;70306;44.764;37.688;2024-03-08T03:06:32;30.10;;;16.13;;
79023;SDS011;70306;44.764;37.688;2024-03-08T03:07:35;26.83;;;17.25;;
79023;SDS011;70306;44.764;37.688;2024-03-08T03:08:37;29.95;;;16.80;;
79023;SDS011;70306;44.764;37.688;2024-03-08T03:09:40;20.38;;;13.98;;
79023;SDS011;70306;44.764;37.688;2024-03-08T03:10:42;18.95;;;13.32;;
79023;SDS011;70306;44.764;37.688;2024-03-08T03:12:07;21.52;;;13.90;;
79023;SDS011;70306;44.764;37.688;2024-03-08T03:13:24;19.70;;;13.60;;
79023;SDS011;70306;44.764;37.688;2024-03-08T03:14:26;25.83;;;16.13;;
79023;SDS011;70306;44.764;37.688;2024-03-08T03:15:28;23.73;;;14.52;;
79023;SDS011;70306;44.764;37.688;2024-03-08T03:16:31;26.98;;;17.60;;
79023;SDS011;70306;44.764;37.688;2024-03-08T03:17:33;20.48;;;14.10;;
79023;SDS011;70306;44.764;37.688;2024-03-08T03:18:35;22.70;;;15.10;;
79023;SDS011;70306;44.764;37.688;2024-03-08T03:19:40;23.05;;;15.05;;
79023;SDS011;70306;44.764;37.688;2024-03-08T03:20:44;31.50;;;18.23;;
79023;SDS011;70306;44.764;37.688;2024-03-08T03:21:46;23.23;;;16.48;;
79023;SDS011;70306;44.764;37.688;2024-03-08T03:22:49;25.52;;;16.00;;
79023;SDS011;70306;44.764;37.688;2024-03-08T03:23:54;26.73;;;15.98;;
79023;SDS011;70306;44.764;37.688;2024-03-08T03:24:56;28.90;;;16.92;;
79023;SDS011;70306;44.764;37.688;2024-03-08T03:26:00;26.63;;;18.40;;
79023;SDS011;70306;44.764;37.688;2024-03-08T03:28:12;25.35;;;16.38;;
79023;SDS011;70306;44.764;37.688;2024-03-08T03:29:18;24.83;;;16.02;;
79023;SDS011;70306;44.764;37.688;2024-03-08T03:30:22;25.20;;;16.20;;
79023;SDS011;70306;44.764;37.688;2024-03-08T03:31:25;24.92;;;17.00;;
79023;SDS011;70306;44.764;37.688;2024-03-08T03:32:27;21.92;;;14.20;;
79023;SDS011;70306;44.764;37.688;2024-03-08T03:33:29;24.20;;;16.83;;
79023;SDS011;70306;44.764;37.688;2024-03-08T03:34:32;31.52;;;18.75;;
79023;SDS011;70306;44.764;37.688;2024-03-08T03:35:34;28.58;;;17.52;;
79023;SDS011;70306;44.764;37.688;2024-03-08T03:36:37;28.42;;;16.23;;
79023;SDS011;70306;44.764;37.688;2024-03-08T03:37:43;25.17;;;14.20;;
79023;SDS011;70306;44.764;37.688;2024-03-08T03:38:52;27.08;;;17.52;;
79023;SDS011;70306;44.764;37.688;2024-03-08T03:40:05;23.38;;;13.73;;
79023;SDS011;70306;44.764;37.688;2024-03-08T03:41:12;22.80;;;14.77;;
79023;SDS011;70306;44.764;37.688;2024-03-08T03:42:15;28.13;;;17.90;;
79023;SDS011;70306;44.764;37.688;2024-03-08T03:43:18;23.63;;;16.05;;
79023;SDS011;70306;44.764;37.688;2024-03-08T03:44:20;29.33;;;18.65;;
79023;SDS011;70306;44.764;37.688;2024-03-08T03:45:24;23.55;;;15.88;;
79023;SDS011;70306;44.764;37.688;2024-03-08T03:46:26;26.90;;;15.23;;
79023;SDS011;70306;44.764;37.688;2024-03-08T03:47:29;26.05;;;16.45;;
79023;SDS011;70306;44.764;37.688;2024-03-08T03:48:31;28.00;;;17.70;;
79023;SDS011;70306;44.764;37.688;2024-03-08T03:49:33;30.95;;;17.90;;
79023;SDS011;70306;44.764;37.688;2024-03-08T03:50:35;23.88;;;15.27;;
79023;SDS011;70306;44.764;37.688;2024-03-08T03:51:37;29.48;;;16.05;;
79023;SDS011;70306;44.764;37.688;2024-03-08T03:52:40;26.88;;;17.88;;
79023;SDS011;70306;44.764;37.688;2024-03-08T03:53:43;32.42;;;18.50;;
79023;SDS011;70306;44.764;37.688;2024-03-08T03:54:45;28.48;;;18.08;;
79023;SDS011;70306;44.764;37.688;2024-03-08T03:55:47;27.70;;;17.75;;
79023;SDS011;70306;44.764;37.688;2024-03-08T03:56:49;27.95;;;17.95;;
79023;SDS011;70306;44.764;37.688;2024-03-08T03:57:54;29.55;;;16.27;;
79023;SDS011;70306;44.764;37.688;2024-03-08T03:58:56;31.00;;;18.42;;
79023;SDS011;70306;44.764;37.688;2024-03-08T03:59:59;29.92;;;17.73;;
79023;SDS011;70306;44.764;37.688;2024-03-08T04:01:01;26.90;;;17.58;;
79023;SDS011;70306;44.764;37.688;2024-03-08T04:02:06;30.30;;;17.95;;
79023;SDS011;70306;44.764;37.688;2024-03-08T04:03:08;27.10;;;17.02;;
79023;SDS011;70306;44.764;37.688;2024-03-08T04:04:10;27.92;;;17.98;;
79023;SDS011;70306;44.764;37.688;2024-03-08T04:05:13;28.55;;;17.75;;
79023;SDS011;70306;44.764;37.688;2024-03-08T04:06:15;29.92;;;17.85;;
79023;SDS011;70306;44.764;37.688;2024-03-08T04:07:18;28.60;;;18.75;;
79023;SDS011;70306;44.764;37.688;2024-03-08T04:08:20;27.80;;;17.25;;
79023;SDS011;70306;44.764;37.688;2024-03-08T04:09:22;30.95;;;16.88;;
79023;SDS011;70306;44.764;37.688;2024-03-08T04:10:24;30.40;;;18.23;;
79023;SDS011;70306;44.764;37.688;2024-03-08T04:11:27;28.27;;;18.95;;
79023;SDS011;70306;44.764;37.688;2024-03-08T04:12:29;30.75;;;18.48;;
79023;SDS011;70306;44.764;37.688;2024-03-08T04:13:32;26.58;;;17.48;;
79023;SDS011;70306;44.764;37.688;2024-03-08T04:14:34;28.25;;;17.77;;
79023;SDS011;70306;44.764;37.688;2024-03-08T04:15:36;27.92;;;17.40;;
79023;SDS011;70306;44.764;37.688;2024-03-08T04:16:39;26.40;;;16.30;;
79023;SDS011;70306;44.764;37.688;2024-03-08T04:17:41;34.85;;;18.02;;
79023;SDS011;70306;44.764;37.688;2024-03-08T04:18:43;24.08;;;14.88;;
79023;SDS011;70306;44.764;37.688;2024-03-08T04:19:45;25.73;;;17.25;;
79023;SDS011;70306;44.764;37.688;2024-03-08T04:21:16;28.88;;;16.85;;
79023;SDS011;70306;44.764;37.688;2024-03-08T04:22:19;25.88;;;17.33;;
79023;SDS011;70306;44.764;37.688;2024-03-08T04:23:21;26.60;;;16.88;;
79023;SDS011;70306;44.764;37.688;2024-03-08T04:24:24;24.40;;;14.98;;
79023;SDS011;70306;44.764;37.688;2024-03-08T04:25:26;26.30;;;17.10;;
79023;SDS011;70306;44.764;37.688;2024-03-08T04:26:29;27.58;;;17.23;;
79023;SDS011;70306;44.764;37.688;2024-03-08T04:27:32;27.88;;;17.95;;
79023;SDS011;70306;44.764;37.688;2024-03-08T04:28:35;27.02;;;16.35;;
79023;SDS011;70306;44.764;37.688;2024-03-08T04:29:38;28.02;;;16.25;;
79023;SDS011;70306;44.764;37.688;2024-03-08T04:30:40;24.98;;;15.63;;
79023;SDS011;70306;44.764;37.688;2024-03-08T04:31:42;23.33;;;15.02;;
79023;SDS011;70306;44.764;37.688;2024-03-08T04:32:45;29.50;;;18.27;;
79023;SDS011;70306;44.764;37.688;2024-03-08T04:33:47;32.17;;;16.95;;
79023;SDS011;70306;44.764;37.688;2024-03-08T04:34:50;26.58;;;16.95;;
79023;SDS011;70306;44.764;37.688;2024-03-08T04:35:52;27.65;;;15.57;;
79023;SDS011;70306;44.764;37.688;2024-03-08T04:36:56;29.05;;;16.60;;
79023;SDS011;70306;44.764;37.688;2024-03-08T04:37:59;29.00;;;17.70;;
79023;SDS011;70306;44.764;37.688;2024-03-08T04:39:02;27.27;;;16.92;;
79023;SDS011;70306;44.764;37.688;2024-03-08T04:40:05;25.85;;;16.42;;
79023;SDS011;70306;44.764;37.688;2024-03-08T04:41:08;30.98;;;19.23;;
79023;SDS011;70306;44.764;37.688;2024-03-08T04:42:11;22.50;;;14.15;;
79023;SDS011;70306;44.764;37.688;2024-03-08T04:43:13;24.95;;;14.43;;
79023;SDS011;70306;44.764;37.688;2024-03-08T04:44:16;25.42;;;15.25;;
79023;SDS011;70306;44.764;37.688;2024-03-08T04:45:19;23.35;;;14.90;;
79023;SDS011;70306;44.764;37.688;2024-03-08T04:46:21;28.13;;;17.17;;
79023;SDS011;70306;44.764;37.688;2024-03-08T04:47:23;26.55;;;16.75;;
79023;SDS011;70306;44.764;37.688;2024-03-08T04:48:26;26.90;;;15.63;;
79023;SDS011;70306;44.764;37.688;2024-03-08T04:49:28;26.13;;;15.45;;
79023;SDS011;70306;44.764;37.688;2024-03-08T04:50:30;26.63;;;16.75;;
79023;SDS011;70306;44.764;37.688;2024-03-08T04:51:33;26.83;;;16.05;;
79023;SDS011;70306;44.764;37.688;2024-03-08T04:52:35;23.25;;;15.57;;
79023;SDS011;70306;44.764;37.688;2024-03-08T04:53:38;30.45;;;16.77;;
79023;SDS011;70306;44.764;37.688;2024-03-08T04:54:40;25.90;;;14.57;;
79023;SDS011;70306;44.764;37.688;2024-03-08T04:55:42;27.65;;;17.23;;
79023;SDS011;70306;44.764;37.688;2024-03-08T04:56:44;23.48;;;14.57;;
79023;SDS011;70306;44.764;37.688;2024-03-08T04:57:47;22.10;;;13.35;;
79023;SDS011;70306;44.764;37.688;2024-03-08T04:58:50;24.10;;;14.38;;
79023;SDS011;70306;44.764;37.688;2024-03-08T04:59:53;27.35;;;16.40;;
79023;SDS011;70306;44.764;37.688;2024-03-08T05:00:55;30.83;;;17.05;;
79023;SDS011;70306;44.764;37.688;2024-03-08T05:01:58;29.70;;;17.55;;
79023;SDS011;70306;44.764;37.688;2024-03-08T05:03:03;30.85;;;18.35;;
79023;SDS011;70306;44.764;37.688;2024-03-08T05:04:06;28.25;;;17.45;;
79023;SDS011;70306;44.764;37.688;2024-03-08T05:05:08;20.27;;;14.00;;
79023;SDS011;70306;44.764;37.688;2024-03-08T05:06:14;29.05;;;16.45;;
79023;SDS011;70306;44.764;37.688;2024-03-08T05:07:16;21.92;;;13.85;;
79023;SDS011;70306;44.764;37.688;2024-03-08T05:08:18;28.58;;;14.27;;
79023;SDS011;70306;44.764;37.688;2024-03-08T05:09:21;24.45;;;14.20;;
79023;SDS011;70306;44.764;37.688;2024-03-08T05:10:24;28.17;;;14.10;;
79023;SDS011;70306;44.764;37.688;2024-03-08T05:11:26;21.58;;;12.18;;
79023;SDS011;70306;44.764;37.688;2024-03-08T05:12:28;21.02;;;12.27;;
79023;SDS011;70306;44.764;37.688;2024-03-08T05:13:30;21.58;;;14.15;;
79023;SDS011;70306;44.764;37.688;2024-03-08T05:14:33;25.67;;;14.05;;
79023;SDS011;70306;44.764;37.688;2024-03-08T05:15:36;23.45;;;13.40;;
79023;SDS011;70306;44.764;37.688;2024-03-08T05:16:43;24.25;;;14.75;;
79023;SDS011;70306;44.764;37.688;2024-03-08T05:17:49;19.77;;;12.70;;
79023;SDS011;70306;44.764;37.688;2024-03-08T05:18:51;15.15;;;10.68;;
79023;SDS011;70306;44.764;37.688;2024-03-08T05:19:53;21.38;;;13.13;;
79023;SDS011;70306;44.764;37.688;2024-03-08T05:20:56;17.20;;;10.60;;
79023;SDS011;70306;44.764;37.688;2024-03-08T05:21:58;26.25;;;15.70;;
79023;SDS011;70306;44.764;37.688;2024-03-08T05:23:00;26.35;;;14.85;;
79023;SDS011;70306;44.764;37.688;2024-03-08T05:24:02;27.27;;;15.90;;
79023;SDS011;70306;44.764;37.688;2024-03-08T05:25:06;18.50;;;11.82;;
79023;SDS011;70306;44.764;37.688;2024-03-08T05:26:11;22.63;;;13.45;;
79023;SDS011;70306;44.764;37.688;2024-03-08T05:27:14;20.05;;;12.32;;
79023;SDS011;70306;44.764;37.688;2024-03-08T05:28:16;19.70;;;12.27;;
79023;SDS011;70306;44.764;37.688;2024-03-08T05:29:19;22.25;;;13.00;;
79023;SDS011;70306;44.764;37.688;2024-03-08T05:30:21;24.55;;;12.80;;
79023;SDS011;70306;44.764;37.688;2024-03-08T05:31:23;20.05;;;12.93;;
79023;SDS011;70306;44.764;37.688;2024-03-08T05:32:49;23.40;;;13.95;;
79023;SDS011;70306;44.764;37.688;2024-03-08T05:33:51;26.63;;;14.85;;
79023;SDS011;70306;44.764;37.688;2024-03-08T05:34:55;23.85;;;14.65;;
79023;SDS011;70306;44.764;37.688;2024-03-08T05:35:57;21.35;;;12.73;;
79023;SDS011;70306;44.764;37.688;2024-03-08T05:37:00;25.17;;;15.75;;
79023;SDS011;70306;44.764;37.688;2024-03-08T05:38:03;27.45;;;16.70;;
79023;SDS011;70306;44.764;37.688;2024-03-08T05:39:05;23.25;;;14.00;;
79023;SDS011;70306;44.764;37.688;2024-03-08T05:40:08;24.95;;;13.10;;
79023;SDS011;70306;44.764;37.688;2024-03-08T05:41:10;22.85;;;14.57;;
79023;SDS011;70306;44.764;37.688;2024-03-08T05:42:16;23.27;;;14.18;;
79023;SDS011;70306;44.764;37.688;2024-03-08T05:43:18;26.05;;;14.93;;
79023;SDS011;70306;44.764;37.688;2024-03-08T05:44:21;26.60;;;15.85;;
79023;SDS011;70306;44.764;37.688;2024-03-08T05:45:24;25.65;;;15.93;;
79023;SDS011;70306;44.764;37.688;2024-03-08T05:46:26;20.15;;;13.30;;
79023;SDS011;70306;44.764;37.688;2024-03-08T05:47:28;28.80;;;17.33;;
79023;SDS011;70306;44.764;37.688;2024-03-08T05:48:30;30.67;;;16.05;;
79023;SDS011;70306;44.764;37.688;2024-03-08T05:49:35;27.40;;;15.55;;
79023;SDS011;70306;44.764;37.688;2024-03-08T05:50:37;24.17;;;14.23;;
79023;SDS011;70306;44.764;37.688;2024-03-08T05:51:40;27.15;;;16.20;;
79023;SDS011;70306;44.764;37.688;2024-03-08T05:52:43;23.17;;;14.25;;
79023;SDS011;70306;44.764;37.688;2024-03-08T05:53:45;27.45;;;15.32;;
79023;SDS011;70306;44.764;37.688;2024-03-08T05:54:47;25.50;;;14.02;;
79023;SDS011;70306;44.764;37.688;2024-03-08T05:55:49;25.92;;;16.10;;
79023;SDS011;70306;44.764;37.688;2024-03-08T05:56:51;25.52;;;15.57;;
79023;SDS011;70306;44.764;37.688;2024-03-08T05:57:54;26.40;;;16.95;;
79023;SDS011;70306;44.764;37.688;2024-03-08T05:58:58;22.95;;;15.25;;
79023;SDS011;70306;44.764;37.688;2024-03-08T06:00:00;25.70;;;15.75;;
79023;SDS011;70306;44.764;37.688;2024-03-08T06:01:02;21.08;;;12.55;;
79023;SDS011;70306;44.764;37.688;2024-03-08T06:02:09;25.83;;;14.90;;
79023;SDS011;70306;44.764;37.688;2024-03-08T06:03:11;26.20;;;16.27;;
79023;SDS011;70306;44.764;37.688;2024-03-08T06:04:13;25.38;;;13.52;;